Arcola, Indiana
Current Conditions -  °F | °C
As of 10:54 PM on Tuesday 27 Jan 2015 (Local Time) from KFWA Reporting Station
Clear Clear  
Wind Chill: 12°   Ceiling: Unl
Heat Index: 12°   Visibility: 10mi
Dew Point:   Wind: 3mph
Humidity: 80%   Direction: 340°NNW
Pressure: 30.24"   Gusts: NA
Location:  41.1°N, 85.29°W
Report Text: KFWA 280354Z 34003KT 10SM CLR M11/M14 A3024 RMK AO2 SLP255 T11111139
Loading
Personal Weather Stations






























Interactive Weather Map New forecast layout! Learn more

10-Day Weather Forecast

Advertisements
Track Severe Weather on mobile